Latest Coastal Weather Observations for Portland Airport

IDV60701

Issued at 5:41 am EST Wednesday 25 May 2016 (issued every 10 minutes, with the page automatically refreshed every 10 minutes)

About coastal observations | Map of coastal stations | Coastal observations for VIC | Marine services | Other Formats
Station Details ID: 090171 Name: CASHMORE AIRPORT Lat: -38.31 Lon: 141.47 Height: 80.9 m
Data from the previous 72 hours. | See also: Recent months at Portland Airport
Date/Time
EST
Temp

°C
Wind Pressure Rain
since 9am
mm
Weather Cloud Vis
km
Sea
Height
m
Swell
Dir
 
Speed
knots
Gust
knots
hPa Trend Height
m
Period
s
Dir
25/05:30am 11.3 N 9 13 1010.9 - 0.0 - Partly cloudy 10 - - - -
25/05:00am 11.4 N 8 11 1011.3 - 0.0 - - 10 - - - -
25/04:30am 11.3 N 9 12 1011.8 - 0.0 - - 10 - - - -
25/04:00am 11.2 N 7 10 1012.4 - 0.0 - - 10 - - - -
25/03:30am 11.0 N 5 9 1012.5 - 0.0 - - 10 - - - -
25/03:00am 10.9 N 6 8 1013.0 - 0.0 - Cloudy 10 - - - -
25/02:30am 10.6 NNE 6 8 1013.5 - 0.0 - - 10 - - - -
25/02:00am 10.3 N 5 7 1013.8 - 0.0 - - 10 - - - -
25/01:30am 10.5 NNE 6 9 1014.0 - 0.0 - - 10 - - - -
25/01:00am 9.9 N 5 6 1014.9 - 0.0 - - 10 - - - -
25/12:30am 9.9 N 5 7 1015.5 - 0.0 - - 10 - - - -
25/12:00am 9.9 N 5 6 1015.8 - 0.0 - - 10 - - - -
 
Date/Time
EST
Temp

°C
Wind Pressure Rain
since 9am
mm
Weather Cloud Vis
km
Sea
Height
m
Swell
Dir
 
Speed
knots
Gust
knots
hPa Trend Height
m
Period
s
Dir
24/11:30pm 10.1 N 5 7 1016.1 - 0.0 - - 10 - - - -
24/11:00pm 10.2 N 5 7 1016.4 - 0.0 - - 10 - - - -
24/10:30pm 10.3 N 5 7 1016.7 - 0.0 - - 10 - - - -
24/10:00pm 10.8 N 5 6 1017.0 - 0.0 - - 10 - - - -
24/09:31pm 10.6 N 3 5 1017.2 - 0.0 - - 10 - - - -
24/09:30pm 10.4 N 3 5 1017.2 - 0.0 - - 10 - - - -
24/09:17pm 10.0 N 2 3 1017.4 - 0.0 - - 6 - - - -
24/09:00pm 9.9 N 3 3 1017.6 - 0.0 - - 10 - - - -
24/08:30pm 11.7 NNE 3 4 1017.7 - 0.0 - Partly cloudy 10 - - - -
24/08:00pm 12.3 NNE 4 5 1017.8 - 0.0 - Partly cloudy 10 - - - -
24/07:30pm 12.8 N 3 5 1018.0 - 0.0 - Partly cloudy 10 - - - -
24/07:00pm 13.1 NNE 4 5 1018.1 - 0.0 - Partly cloudy 10 - - - -
24/06:30pm 13.6 NE 3 5 1018.2 - 0.0 - Partly cloudy 10 - - - -
24/06:00pm 13.7 NE 4 5 1018.3 - 0.0 - Cloudy 10 - - - -
24/05:30pm 13.9 CALM 0 2 1018.4 - 0.0 - Partly cloudy 10 - - - -
24/05:00pm 15.1 CALM 0 0 1018.4 - 0.0 - Partly cloudy 10 - - - -
24/04:30pm 16.3 W 4 5 1018.5 - 0.0 - Partly cloudy 10 - - - -
24/04:00pm 15.8 W 5 7 1018.6 - 0.0 - Partly cloudy 10 - - - -
24/03:30pm 16.2 W 6 8 1018.6 - 0.0 - Cloudy 10 - - - -
24/03:00pm 16.1 W 7 10 1018.5 - 0.0 - Partly cloudy 10 - - - -
24/02:30pm 16.3 W 8 11 1018.6 - 0.0 - Partly cloudy 10 - - - -
24/02:00pm 16.0 W 7 10 1019.1 - 0.0 - Partly cloudy 10 - - - -
24/01:30pm 16.3 W 8 11 1019.3 - 0.0 - - 10 - - - -
24/01:00pm 16.0 W 9 14 1019.5 - 0.0 - - 10 - - - -
24/12:30pm 16.3 W 6 11 1019.5 - 0.0 - - 10 - - - -
24/12:00pm 16.1 NNW 5 8 1020.1 - 0.0 - Partly cloudy 10 - - - -
24/11:30am 15.8 NNW 5 8 1020.9 - 0.0 - - 10 - - - -
24/11:00am 15.5 NW 6 8 1021.3 - 0.0 - - 10 - - - -
24/10:30am 14.8 NW 6 8 1021.2 - 0.0 - - 10 - - - -
24/10:00am 14.2 NW 5 7 1021.5 - 0.0 - - 10 - - - -
24/09:30am 12.7 N 4 5 1021.6 - 0.0 - Cloudy 10 - - - -
24/09:00am 10.6 N 4 6 1021.7 - 0.2 - Partly cloudy 10 - - - -
24/08:30am 9.1 N 5 6 1021.7 - 0.2 - - 10 - - - -
24/08:00am 9.5 W 3 5 1021.4 - 0.2 - - 10 - - - -
24/07:30am 11.2 WSW 5 7 1021.4 - 0.2 - Partly cloudy 10 - - - -
24/07:00am 10.8 WSW 5 7 1021.3 - 0.2 - Cloudy 10 - - - -
24/06:30am 10.2 WSW 4 6 1020.8 - 0.2 - Partly cloudy 10 - - - -
24/06:00am 10.9 WSW 5 7 1020.6 - 0.2 - Partly cloudy 10 - - - -
24/05:30am 11.4 WSW 6 8 1020.3 - 0.2 - Partly cloudy 10 - - - -
24/05:00am 11.7 SW 7 10 1020.2 - 0.2 - Partly cloudy 10 - - - -
24/04:30am 11.5 SW 7 9 1020.1 - 0.2 - Partly cloudy 10 - - - -
24/04:00am 11.9 WSW 7 9 1020.0 - 0.2 - Partly cloudy 10 - - - -
24/03:30am 12.0 WSW 9 12 1020.2 - 0.2 - Partly cloudy 10 - - - -
24/03:00am 11.9 WSW 9 12 1020.3 - 0.2 - Mostly clear 10 - - - -
24/02:30am 12.0 WSW 10 13 1020.1 - 0.2 - - 10 - - - -
24/02:00am 12.6 WSW 12 17 1020.0 - 0.2 - Partly cloudy 10 - - - -
24/01:30am 13.1 WSW 11 15 1019.9 - 0.2 - Partly cloudy 10 - - - -
24/01:00am 12.9 WSW 11 15 1019.9 - 0.2 - Partly cloudy 10 - - - -
24/12:30am 13.2 WSW 11 15 1020.0 - 0.2 - Partly cloudy 10 - - - -
24/12:00am 12.8 WSW 10 15 1020.1 - 0.2 - Cloudy 10 - - - -
 
Date/Time
EST
Temp

°C
Wind Pressure Rain
since 9am
mm
Weather Cloud Vis
km
Sea
Height
m
Swell
Dir
 
Speed
knots
Gust
knots
hPa Trend Height
m
Period
s
Dir
23/11:30pm 13.0 WSW 9 15 1020.1 - 0.2 - Partly cloudy 10 - - - -
23/11:00pm 12.7 W 11 15 1020.3 - 0.2 - Partly cloudy 10 - - - -
23/10:30pm 13.1 WSW 11 15 1020.3 - 0.2 - Partly cloudy 10 - - - -
23/10:00pm 13.1 WSW 13 19 1020.2 - 0.2 - Partly cloudy 10 - - - -
23/09:30pm 12.8 WSW 12 16 1020.0 - 0.2 - Partly cloudy 10 - - - -
23/09:00pm 12.9 WSW 11 16 1020.0 - 0.2 - Cloudy 10 - - - -
23/08:30pm 12.9 W 11 15 1019.9 - 0.2 - Partly cloudy 10 - - - -
23/08:00pm 12.5 WSW 11 16 1019.6 - 0.2 - Partly cloudy 10 - - - -
23/07:30pm 12.6 WSW 13 17 1019.5 - 0.2 - Partly cloudy 10 - - - -
23/07:00pm 12.5 WSW 12 20 1019.3 - 0.2 - Partly cloudy 10 - - - -
23/06:30pm 13.0 WSW 14 19 1019.0 - 0.2 - Partly cloudy 10 - - - -
23/06:00pm 12.7 WSW 13 18 1018.8 - 0.2 - Mostly cloudy 10 - - - -
23/05:30pm 12.8 WSW 13 18 1018.4 - 0.2 - Partly cloudy 10 - - - -
23/05:00pm 13.1 WSW 13 18 1018.1 - 0.2 - Partly cloudy 10 - - - -
23/04:30pm 13.8 WSW 15 21 1017.8 - 0.2 - Partly cloudy 10 - - - -
23/04:00pm 14.0 W 18 24 1017.4 - 0.2 - Partly cloudy 10 - - - -
23/03:30pm 13.9 W 15 23 1017.2 - 0.2 - Partly cloudy 10 - - - -
23/03:00pm 14.4 W 14 21 1017.1 - 0.2 Recent precip. Cloudy 10 - - - -
23/02:30pm 14.0 WNW 15 24 1017.1 - 0.2 - Partly cloudy 10 - - - -
23/02:00pm 13.9 WNW 13 18 1017.0 - 0.0 - Partly cloudy 10 - - - -
23/01:30pm 13.4 WNW 13 21 1017.2 - 0.0 - Partly cloudy 10 - - - -
23/01:00pm 14.4 WNW 13 18 1017.4 - 0.0 - Partly cloudy 10 - - - -
23/12:30pm 12.6 WNW 17 25 1017.6 - 0.0 - Partly cloudy 10 - - - -
23/12:22pm 12.5 WNW 15 25 1017.5 - 0.0 - Partly cloudy 10 - - - -
23/12:00pm 12.7 W 18 27 1017.7 - 0.0 - Cloudy 10 - - - -
23/11:30am 14.3 WNW 15 20 1017.8 - 0.0 - Partly cloudy 10 - - - -
23/11:04am 14.7 W 19 29 1017.7 - 0.0 - Partly cloudy 10 - - - -
23/11:00am 14.7 W 17 25 1017.7 - 0.0 - Partly cloudy 10 - - - -
23/10:30am 13.4 W 15 21 1017.6 - 0.0 - Partly cloudy 10 - - - -
23/10:00am 13.3 WNW 13 19 1017.6 - 0.0 - Partly cloudy 10 - - - -
23/09:30am 12.6 W 15 20 1017.6 - 0.0 - Partly cloudy 10 - - - -
23/09:00am 12.6 W 15 24 1017.3 - 15.6 - Cloudy 10 - - - -
23/08:30am 12.0 W 14 22 1017.1 - 15.6 - Partly cloudy 10 - - - -
23/08:00am 11.9 W 18 25 1016.4 - 15.6 - Partly cloudy 10 - - - -
23/07:30am 11.6 WSW 17 23 1016.0 - 15.6 - Partly cloudy 10 - - - -
23/07:00am 11.8 WSW 18 26 1015.0 - 15.6 - Partly cloudy 10 - - - -
23/06:45am 11.5 WSW 18 28 1014.8 - 15.6 - Cloudy 10 - - - -
23/06:30am 11.7 W 19 26 1014.6 - 15.6 - Partly cloudy 10 - - - -
23/06:00am 11.4 WSW 21 30 1014.1 - 15.6 Recent precip. Cloudy 10 - - - -
23/05:30am 11.0 W 19 30 1013.5 - 15.6 - Partly cloudy 10 - - - -
23/05:28am 11.1 W 17 28 1013.4 - 15.6 - Partly cloudy 10 - - - -
23/05:26am 10.8 W 16 23 1013.4 - 15.6 - Partly cloudy 10 - - - -
23/05:06am 10.2 WSW 24 42 1012.9 - 14.8 - Partly cloudy 6 - - - -
23/05:03am 11.1 WSW 22 35 1012.7 - 14.6 - Partly cloudy 9 - - - -
23/05:00am 11.6 WSW 22 30 1012.6 - 14.2 - Partly cloudy 10 - - - -
23/04:30am 11.2 W 19 30 1012.0 - 14.2 - Partly cloudy 10 - - - -
23/04:00am 10.4 WSW 19 31 1011.6 - 14.2 - Partly cloudy 10 - - - -
23/03:57am 10.4 WSW 19 31 1011.6 - 14.2 - Partly cloudy 10 - - - -
23/03:31am 9.8 W 18 29 1011.0 - 13.4 - Partly cloudy 5 - - - -
23/03:30am 9.8 W 18 29 1011.0 - 13.2 - Partly cloudy 5 - - - -
23/03:29am 9.9 W 17 29 1011.0 - 13.2 - Partly cloudy 6 - - - -
23/03:27am 11.0 W 15 25 1011.1 - 12.6 - Partly cloudy 10 - - - -
23/03:12am 10.7 WNW 12 17 1010.6 - 12.4 - Partly cloudy 10 - - - -
23/03:09am 10.8 WNW 12 17 1010.5 - 12.4 - Partly cloudy 10 - - - -
23/03:07am 10.9 WNW 12 18 1010.6 - 12.4 - Partly cloudy 10 - - - -
23/03:00am 10.6 WNW 15 27 1010.7 - 12.4 Rain Cloudy 7 - - - -
23/02:56am 10.6 WNW 17 29 1010.6 - 12.4 - Partly cloudy 5 - - - -
23/02:55am 10.6 WNW 16 29 1010.7 - 12.4 - Partly cloudy 5 - - - -
23/02:52am 10.6 NW 15 29 1010.6 - 12.0 - Partly cloudy 5 - - - -
23/02:48am 10.4 NW 11 29 1010.5 - 11.6 - Partly cloudy 6 - - - -
23/02:30am 10.4 NW 13 20 1009.5 - 10.6 - Partly cloudy 10 - - - -
23/02:00am 10.5 NW 13 19 1009.6 - 10.6 - Partly cloudy 10 - - - -
23/01:30am 11.2 WNW 19 29 1009.5 - 10.6 - Partly cloudy 10 - - - -
23/01:23am 11.2 WNW 17 27 1009.4 - 10.6 - Partly cloudy 10 - - - -
23/01:20am 11.1 WNW 16 27 1009.4 - 10.4 - Partly cloudy 10 - - - -
23/01:14am 11.0 WNW 17 25 1009.5 - 10.4 - Partly cloudy 10 - - - -
23/01:00am 10.7 WNW 24 35 1009.7 - 10.2 - Partly cloudy 4 - - - -
23/12:57am 10.8 WNW 25 37 1009.7 - 10.2 - Partly cloudy 3 - - - -
23/12:48am 11.8 NW 15 37 1009.2 - 9.4 - Partly cloudy 5 - - - -
23/12:37am 12.2 NW 15 25 1009.2 - 8.2 - Partly cloudy 10 - - - -
23/12:30am 12.3 NW 13 18 1009.1 - 7.8 - Partly cloudy 10 - - - -
23/12:00am 12.2 NW 10 17 1008.7 - 7.6 - Cloudy 10 - - - -
 
Date/Time
EST
Temp

°C
Wind Pressure Rain
since 9am
mm
Weather Cloud Vis
km
Sea
Height
m
Swell
Dir
 
Speed
knots
Gust
knots
hPa Trend Height
m
Period
s
Dir
22/11:30pm 12.2 NNW 11 17 1008.7 - 7.6 - Partly cloudy 10 - - - -
22/11:00pm 12.5 NNW 12 17 1008.4 - 7.6 - Partly cloudy 10 - - - -
22/10:30pm 12.8 NNW 13 20 1008.7 - 7.6 - Partly cloudy 10 - - - -
22/10:00pm 12.8 NW 11 16 1008.8 - 7.2 - Partly cloudy 10 - - - -
22/09:30pm 12.8 NW 13 20 1009.0 - 6.8 - Partly cloudy 10 - - - -
22/09:00pm 13.8 NW 16 23 1009.0 - 5.4 Rain Mostly cloudy 10 - - - -
22/08:30pm 14.5 NNW 15 22 1008.4 - 4.8 - Partly cloudy 10 - - - -
22/08:00pm 14.6 NNW 13 21 1008.3 - 4.6 - Partly cloudy 10 - - - -
22/07:30pm 14.4 NNW 14 20 1008.2 - 4.6 - Partly cloudy 10 - - - -
22/07:29pm 14.4 NNW 14 20 1008.1 - 4.6 - Partly cloudy 10 - - - -
22/07:27pm 14.4 NNW 14 21 1008.2 - 4.6 - Partly cloudy 10 - - - -
22/07:13pm 14.4 NNW 15 23 1008.1 - 4.2 - Partly cloudy 6 - - - -
22/07:09pm 14.4 NNW 15 23 1008.2 - 3.6 - Partly cloudy 9 - - - -
22/07:00pm 14.4 NNW 14 21 1008.0 - 3.2 - Partly cloudy 7 - - - -
22/06:49pm 14.5 NNW 14 20 1008.0 - 2.8 - Partly cloudy 5 - - - -
22/06:43pm 14.6 NNW 15 23 1008.0 - 2.4 - Partly cloudy 6 - - - -
22/06:41pm 14.7 NNW 16 23 1007.9 - 2.4 - Partly cloudy 7 - - - -
22/06:30pm 14.8 NNW 14 21 1007.6 - 1.8 - Partly cloudy 6 - - - -
22/06:25pm 14.9 NNW 14 23 1007.6 - 1.6 - Partly cloudy 6 - - - -
22/06:00pm 15.5 N 11 17 1007.4 - 0.6 Recent precip. Cloudy 10 - - - -
22/05:30pm 16.0 NNW 9 13 1007.4 - 0.4 - Partly cloudy 10 - - - -
22/05:00pm 17.6 NNW 9 14 1007.3 - 0.0 - Partly cloudy 10 - - - -
22/04:30pm 18.3 N 12 17 1007.1 - 0.0 - Partly cloudy 10 - - - -
22/04:00pm 17.6 N 11 17 1007.1 - 0.0 - Partly cloudy 10 - - - -
22/03:30pm 17.7 N 16 35 1007.4 - 0.0 - Cloudy 10 - - - -
22/03:27pm 18.2 N 15 35 1007.2 - 0.0 - Partly cloudy 10 - - - -
22/03:00pm 18.4 N 14 21 1006.8 - 0.0 - Cloudy 10 - - - -
22/02:30pm 18.1 N 13 20 1006.7 - 0.0 - - 10 - - - -
22/02:00pm 17.8 N 14 20 1007.1 - 0.0 - Partly cloudy 10 - - - -
22/01:30pm 17.9 N 13 21 1007.0 - 0.0 - - 10 - - - -
22/01:00pm 17.9 N 14 23 1007.8 - 0.0 - - 10 - - - -
22/12:30pm 17.7 N 13 21 1008.0 - 0.0 - - 10 - - - -
22/12:00pm 17.5 N 14 21 1008.1 - 0.0 - Mostly clear 10 - - - -
22/11:30am 16.8 N 14 20 1009.2 - 0.0 - - 10 - - - -
22/11:00am 16.1 N 16 24 1009.7 - 0.0 - - 10 - - - -
22/10:30am 15.9 N 15 24 1009.9 - 0.0 - - 10 - - - -
22/10:11am 15.5 N 15 25 1009.9 - 0.0 - - 10 - - - -
22/10:00am 15.4 N 16 25 1010.2 - 0.0 - - 10 - - - -
22/09:30am 15.2 N 15 21 1010.5 - 0.0 - - 10 - - - -
22/09:16am 15.0 N 15 26 1010.5 - 0.0 - - 10 - - - -
22/09:00am 14.8 N 15 21 1010.8 - 0.0 - - 10 - - - -
22/08:30am 14.3 N 14 23 1010.8 - 0.0 - - 10 - - - -
22/08:00am 13.7 NNE 13 19 1010.9 - 0.0 - - 10 - - - -
22/07:30am 13.4 NNE 11 17 1011.4 - 0.0 - - 10 - - - -
22/07:00am 13.3 NNE 12 16 1011.7 - 0.0 - - 10 - - - -
22/06:30am 13.2 NNE 10 18 1012.1 - 0.0 - - 10 - - - -
22/06:00am 13.3 NNE 12 19 1012.6 - 0.0 - Cloudy 10 - - - -

Other Formats:

Comma delimited format used in spreadsheet applications
http://www.bom.gov.au/fwo/IDV60701/IDV60701.94828.axf

JavaScript Object Notation format (JSON) in row-major order
http://www.bom.gov.au/fwo/IDV60701/IDV60701.94828.json